Pine Island, MN (55963)

7:08 PM CST on January 23, 2017 (GMT -0600)
BS Acres | | Change Station
Active Advisory: Winter Storm Watch

Elev 1178 ft 44.24 °N, 92.73 °W | Updated 21 seconds ago

Overcast
Overcast
32.2 °F
Feels Like 32 °F
N
0.0
Wind Variable Wind from West
Gusts 0.0 mph

Today
High -- | Low -- °F
--% Chance of Precip.
Yesterday
High -- | Low -- °F
Precip. -- in
Pressure 29.82 in
Visibility 10.0 miles
Clouds Overcast 1400 ft
Windchill 32 °F
Dew Point 27 °F
Humidity 82%
Rainfall 0.00 in
Snow Depth Not available.
7:36 AM 5:08 PM
Waning Crescent, 15% visible
METAR K9MN 240053Z AUTO 30004KT 10SM OVC014 00/M01 A2982 RMK AO1 T00031011
Pressure 29.82 in
Visibility 10.0 miles
Clouds Overcast 1400 ft
Windchill 32 °F
Dew Point 27 °F
Humidity 82%
Rainfall 0.00 in
Snow Depth Not available.
7:36 AM 5:08 PM
Waning Crescent, 15% visible
METAR K9MN 240053Z AUTO 30004KT 10SM OVC014 00/M01 A2982 RMK AO1 T00031011

Get Your Daily Forecast Email!

Thanks for signing up!

Be on the lookout for a verification email in your inbox.

You'll start receiving the daily forecast at 8 AM.

×

10-Day Weather Forecast

Almanac

Astronomy

Jan. 23, 2017 Rise Set
Actual Time
Civil Twilight
Nautical Twilight
Astronomical Twilight
Moon
Length of Visible Light
Length of Day
Tomorrow will be .
, % of the Moon is Illuminated

Today's Extremes

State Highs State Lows

Community

WunderPhotos

Upload Photos

1,962,540 photos uploaded!

WunderBlog® & News

Nearby

Air Quality

  Air Quality AQ Index Pollutant
Not available.

Snow Depth

Station Depth Elevation

Earthquake Activity

City Distance Mag. Time & Date
Minimum magnitude displayed is 2.5.

Coastal Water Temperatures

Place Temperature

Stations

Nearby Weather Stations

Station Location Temp. Windchill Dew Point Humidity Wind Precip. Elev Updated Type
                   

Watches & Warnings

Winter Storm Watch
Issued: 2:59 PM CST Jan. 23, 2017 – National Weather Service

... Winter Storm Watch now in effect from Tuesday afternoon
through Wednesday afternoon...

* timing... Tuesday into Wednesday afternoon

* main impact... accumulating snow from 6 to 8 inches will make
for difficult travel

* other impacts... blowing and drifting snow with low
visibilities possible Wednesday

Precautionary/preparedness actions...

A Winter Storm Watch means there is a potential for significant
snow... sleet... or ice accumulations that may impact travel.
Continue to monitor the latest forecasts.